Terminal Aerodrome Forecast
Issued by NWS Charleston, WV

Home | Current Version | Previous Version | Text Only | Print | Product List | Glossary On
Versions: 1 2 3 4 5 6 7 8 9 10 11 12 13 14 15 16 17 18 19 20 21 22 23 24 25 26 27 28 29 30 31 32 33 34 35 36 37 38 39
000
FTUS41 KRLX 231100 AAA
TAFEKN
TAF AMD
KEKN 231155Z 2312/2412 30007KT P6SM OVC008
     FM231400 30007G17KT P6SM OVC012
     FM231600 30007KT P6SM BKN020
     FM231900 30007G17KT P6SM BKN030
     FM232300 29006KT P6SM SCT250
     FM240500 VRB03KT 6SM BR SCT020
     FM240600 VRB03KT 3SM BR SCT020=

USA.gov is the U.S. government's official web portal to all federal, state and local government web resources and services.